Terminal Aerodrome Forecast
Issued by NWS

Home | Current Version | Previous Version | Text Only | Print | Product List | Glossary On
Versions: 1 2 3 4 5 6 7 8 9 10 11 12 13 14 15 16 17 18 19 20 21 22 23 24 25 26 27 28 29 30 31
000
FTUS43 KPAH 211128
TAFOWB
TAF
KOWB 211128Z 2112/2212 19006KT 6SM -DZ BR OVC015
     FM220300 17010KT P6SM BKN060 WS020/19045KT
     FM220800 16013G18KT P6SM BKN080=

USA.gov is the U.S. government's official web portal to all federal, state and local government web resources and services.